sensor_id;sensor_type;location;lat;lon;timestamp;temperature;humidity
61841;DHT22;47773;53.174;6.614;2023-02-17T00:00:55;9.70;99.90
61841;DHT22;47773;53.174;6.614;2023-02-17T00:03:20;9.70;99.90
61841;DHT22;47773;53.174;6.614;2023-02-17T00:05:46;9.70;99.90
61841;DHT22;47773;53.174;6.614;2023-02-17T00:08:11;9.70;99.90
61841;DHT22;47773;53.174;6.614;2023-02-17T00:10:37;9.70;99.90
61841;DHT22;47773;53.174;6.614;2023-02-17T00:13:03;9.70;99.90
61841;DHT22;47773;53.174;6.614;2023-02-17T00:15:28;9.70;99.90
61841;DHT22;47773;53.174;6.614;2023-02-17T00:17:54;9.70;99.90
61841;DHT22;47773;53.174;6.614;2023-02-17T00:20:20;9.70;99.90
61841;DHT22;47773;53.174;6.614;2023-02-17T00:22:45;9.70;99.90
61841;DHT22;47773;53.174;6.614;2023-02-17T00:25:11;9.70;99.90
61841;DHT22;47773;53.174;6.614;2023-02-17T00:27:36;9.70;99.90
61841;DHT22;47773;53.174;6.614;2023-02-17T00:30:02;9.70;99.90
61841;DHT22;47773;53.174;6.614;2023-02-17T00:32:28;9.80;99.90
61841;DHT22;47773;53.174;6.614;2023-02-17T00:34:54;9.70;99.90
61841;DHT22;47773;53.174;6.614;2023-02-17T00:37:21;9.70;99.90
61841;DHT22;47773;53.174;6.614;2023-02-17T00:39:47;9.70;99.90
61841;DHT22;47773;53.174;6.614;2023-02-17T00:42:12;9.70;99.90
61841;DHT22;47773;53.174;6.614;2023-02-17T00:44:38;9.70;99.90
61841;DHT22;47773;53.174;6.614;2023-02-17T00:47:03;9.70;99.90
61841;DHT22;47773;53.174;6.614;2023-02-17T00:49:29;9.70;99.90
61841;DHT22;47773;53.174;6.614;2023-02-17T00:51:58;9.70;99.90
61841;DHT22;47773;53.174;6.614;2023-02-17T00:54:25;9.70;99.90
61841;DHT22;47773;53.174;6.614;2023-02-17T00:56:50;9.70;99.90
61841;DHT22;47773;53.174;6.614;2023-02-17T00:59:16;9.70;99.90
61841;DHT22;47773;53.174;6.614;2023-02-17T01:01:42;9.70;99.90
61841;DHT22;47773;53.174;6.614;2023-02-17T01:04:07;9.70;99.90
61841;DHT22;47773;53.174;6.614;2023-02-17T01:06:36;9.70;99.90
61841;DHT22;47773;53.174;6.614;2023-02-17T01:09:06;9.70;99.90
61841;DHT22;47773;53.174;6.614;2023-02-17T01:11:33;9.80;99.90
61841;DHT22;47773;53.174;6.614;2023-02-17T01:14:01;9.80;99.90
61841;DHT22;47773;53.174;6.614;2023-02-17T01:16:33;9.70;99.90
61841;DHT22;47773;53.174;6.614;2023-02-17T01:19:01;9.80;99.90
61841;DHT22;47773;53.174;6.614;2023-02-17T01:21:29;9.80;99.90
61841;DHT22;47773;53.174;6.614;2023-02-17T01:23:56;9.80;99.90
61841;DHT22;47773;53.174;6.614;2023-02-17T01:26:24;9.80;99.90
61841;DHT22;47773;53.174;6.614;2023-02-17T01:28:51;9.80;99.90
61841;DHT22;47773;53.174;6.614;2023-02-17T01:31:18;9.80;99.90
61841;DHT22;47773;53.174;6.614;2023-02-17T01:33:43;9.80;99.90
61841;DHT22;47773;53.174;6.614;2023-02-17T01:36:10;9.80;99.90
61841;DHT22;47773;53.174;6.614;2023-02-17T01:38:36;9.80;99.90
61841;DHT22;47773;53.174;6.614;2023-02-17T01:41:03;9.90;99.90
61841;DHT22;47773;53.174;6.614;2023-02-17T01:43:29;9.90;99.90
61841;DHT22;47773;53.174;6.614;2023-02-17T01:46:00;9.80;99.90
61841;DHT22;47773;53.174;6.614;2023-02-17T01:48:29;9.80;99.90
61841;DHT22;47773;53.174;6.614;2023-02-17T01:53:45;9.90;99.90
61841;DHT22;47773;53.174;6.614;2023-02-17T01:56:13;9.90;99.90
61841;DHT22;47773;53.174;6.614;2023-02-17T01:58:42;9.90;99.90
61841;DHT22;47773;53.174;6.614;2023-02-17T02:01:09;9.90;99.90
61841;DHT22;47773;53.174;6.614;2023-02-17T02:03:36;9.90;99.90
61841;DHT22;47773;53.174;6.614;2023-02-17T02:06:15;9.90;99.90
61841;DHT22;47773;53.174;6.614;2023-02-17T02:08:55;9.90;99.90
61841;DHT22;47773;53.174;6.614;2023-02-17T02:11:21;9.90;99.90
61841;DHT22;47773;53.174;6.614;2023-02-17T02:13:48;10.00;99.90
61841;DHT22;47773;53.174;6.614;2023-02-17T02:16:19;10.00;99.90
61841;DHT22;47773;53.174;6.614;2023-02-17T02:21:36;9.90;99.90
61841;DHT22;47773;53.174;6.614;2023-02-17T02:30:17;9.90;99.90
61841;DHT22;47773;53.174;6.614;2023-02-17T02:33:05;9.90;99.90
61841;DHT22;47773;53.174;6.614;2023-02-17T02:35:58;10.00;99.90
61841;DHT22;47773;53.174;6.614;2023-02-17T02:38:41;10.00;99.90
61841;DHT22;47773;53.174;6.614;2023-02-17T02:41:18;9.90;99.90
61841;DHT22;47773;53.174;6.614;2023-02-17T02:43:47;9.90;99.90
61841;DHT22;47773;53.174;6.614;2023-02-17T02:46:13;10.00;99.90
61841;DHT22;47773;53.174;6.614;2023-02-17T02:48:39;10.00;99.90
61841;DHT22;47773;53.174;6.614;2023-02-17T02:51:23;9.90;99.90
61841;DHT22;47773;53.174;6.614;2023-02-17T02:54:05;10.00;99.90
61841;DHT22;47773;53.174;6.614;2023-02-17T02:59:45;10.00;99.90
61841;DHT22;47773;53.174;6.614;2023-02-17T03:10:19;10.00;99.90
61841;DHT22;47773;53.174;6.614;2023-02-17T03:12:45;10.00;99.90
61841;DHT22;47773;53.174;6.614;2023-02-17T03:15:32;10.00;99.90
61841;DHT22;47773;53.174;6.614;2023-02-17T03:17:59;9.90;99.90
61841;DHT22;47773;53.174;6.614;2023-02-17T03:20:27;9.90;99.90
61841;DHT22;47773;53.174;6.614;2023-02-17T03:22:54;9.90;99.90
61841;DHT22;47773;53.174;6.614;2023-02-17T03:25:20;9.90;99.90
61841;DHT22;47773;53.174;6.614;2023-02-17T03:27:46;9.90;99.90
61841;DHT22;47773;53.174;6.614;2023-02-17T03:30:12;9.90;99.90
61841;DHT22;47773;53.174;6.614;2023-02-17T03:32:38;9.90;99.90
61841;DHT22;47773;53.174;6.614;2023-02-17T03:35:04;9.90;99.90
61841;DHT22;47773;53.174;6.614;2023-02-17T03:37:30;9.90;99.90
61841;DHT22;47773;53.174;6.614;2023-02-17T03:39:55;9.90;99.90
61841;DHT22;47773;53.174;6.614;2023-02-17T03:42:21;9.90;99.90
61841;DHT22;47773;53.174;6.614;2023-02-17T03:44:46;9.90;99.90
61841;DHT22;47773;53.174;6.614;2023-02-17T03:47:12;9.90;99.90
61841;DHT22;47773;53.174;6.614;2023-02-17T03:49:38;9.90;99.90
61841;DHT22;47773;53.174;6.614;2023-02-17T03:52:03;9.90;99.90
61841;DHT22;47773;53.174;6.614;2023-02-17T03:54:29;9.90;99.90
61841;DHT22;47773;53.174;6.614;2023-02-17T03:56:55;9.90;99.90
61841;DHT22;47773;53.174;6.614;2023-02-17T03:59:20;9.90;99.90
61841;DHT22;47773;53.174;6.614;2023-02-17T04:01:46;9.90;99.90
61841;DHT22;47773;53.174;6.614;2023-02-17T04:04:12;9.90;99.90
61841;DHT22;47773;53.174;6.614;2023-02-17T04:06:37;9.90;99.90
61841;DHT22;47773;53.174;6.614;2023-02-17T04:09:03;9.90;99.90
61841;DHT22;47773;53.174;6.614;2023-02-17T04:11:29;9.90;99.90
61841;DHT22;47773;53.174;6.614;2023-02-17T04:13:54;9.90;99.90
61841;DHT22;47773;53.174;6.614;2023-02-17T04:16:20;9.90;99.90
61841;DHT22;47773;53.174;6.614;2023-02-17T04:18:45;9.90;99.90
61841;DHT22;47773;53.174;6.614;2023-02-17T04:21:11;9.90;99.90
61841;DHT22;47773;53.174;6.614;2023-02-17T04:23:37;9.90;99.90
61841;DHT22;47773;53.174;6.614;2023-02-17T04:26:07;9.90;99.90
61841;DHT22;47773;53.174;6.614;2023-02-17T04:28:33;9.90;99.90
61841;DHT22;47773;53.174;6.614;2023-02-17T04:30:59;9.90;99.90
61841;DHT22;47773;53.174;6.614;2023-02-17T04:33:25;9.90;99.90
61841;DHT22;47773;53.174;6.614;2023-02-17T04:35:50;9.90;99.90
61841;DHT22;47773;53.174;6.614;2023-02-17T04:38:18;9.90;99.90
61841;DHT22;47773;53.174;6.614;2023-02-17T04:40:43;9.90;99.90
61841;DHT22;47773;53.174;6.614;2023-02-17T04:43:09;9.80;99.90
61841;DHT22;47773;53.174;6.614;2023-02-17T04:45:35;9.80;99.90
61841;DHT22;47773;53.174;6.614;2023-02-17T04:48:01;9.80;99.90
61841;DHT22;47773;53.174;6.614;2023-02-17T04:50:27;9.80;99.90
61841;DHT22;47773;53.174;6.614;2023-02-17T04:52:53;9.80;99.90
61841;DHT22;47773;53.174;6.614;2023-02-17T04:55:19;9.80;99.90
61841;DHT22;47773;53.174;6.614;2023-02-17T04:57:44;9.80;99.90
61841;DHT22;47773;53.174;6.614;2023-02-17T05:00:11;9.80;99.90
61841;DHT22;47773;53.174;6.614;2023-02-17T05:02:36;9.80;99.90
61841;DHT22;47773;53.174;6.614;2023-02-17T05:05:02;9.80;99.90
61841;DHT22;47773;53.174;6.614;2023-02-17T05:07:28;9.80;99.90
61841;DHT22;47773;53.174;6.614;2023-02-17T05:09:54;9.80;99.90
61841;DHT22;47773;53.174;6.614;2023-02-17T05:12:19;9.70;99.90
61841;DHT22;47773;53.174;6.614;2023-02-17T05:14:45;9.70;99.90
61841;DHT22;47773;53.174;6.614;2023-02-17T05:17:11;9.70;99.90
61841;DHT22;47773;53.174;6.614;2023-02-17T05:19:36;9.70;99.90
61841;DHT22;47773;53.174;6.614;2023-02-17T05:22:02;9.70;99.90
61841;DHT22;47773;53.174;6.614;2023-02-17T05:24:28;9.70;99.90
61841;DHT22;47773;53.174;6.614;2023-02-17T05:26:53;9.70;99.90
61841;DHT22;47773;53.174;6.614;2023-02-17T05:29:19;9.70;99.90
61841;DHT22;47773;53.174;6.614;2023-02-17T05:31:45;9.70;99.90
61841;DHT22;47773;53.174;6.614;2023-02-17T05:34:11;9.60;99.90
61841;DHT22;47773;53.174;6.614;2023-02-17T05:36:37;9.60;99.90
61841;DHT22;47773;53.174;6.614;2023-02-17T05:39:03;9.60;99.90
61841;DHT22;47773;53.174;6.614;2023-02-17T05:41:28;9.60;99.90
61841;DHT22;47773;53.174;6.614;2023-02-17T05:43:54;9.70;99.90
61841;DHT22;47773;53.174;6.614;2023-02-17T05:46:20;9.60;99.90
61841;DHT22;47773;53.174;6.614;2023-02-17T05:48:47;9.60;99.90
61841;DHT22;47773;53.174;6.614;2023-02-17T05:51:13;9.60;99.90
61841;DHT22;47773;53.174;6.614;2023-02-17T05:53:42;9.60;99.90
61841;DHT22;47773;53.174;6.614;2023-02-17T05:56:07;9.60;99.90
61841;DHT22;47773;53.174;6.614;2023-02-17T05:58:33;9.60;99.90
61841;DHT22;47773;53.174;6.614;2023-02-17T06:00:59;9.60;99.90
61841;DHT22;47773;53.174;6.614;2023-02-17T06:03:24;9.60;99.90
61841;DHT22;47773;53.174;6.614;2023-02-17T06:05:50;9.60;99.90
61841;DHT22;47773;53.174;6.614;2023-02-17T06:08:15;9.60;99.90
61841;DHT22;47773;53.174;6.614;2023-02-17T06:10:41;9.60;99.90
61841;DHT22;47773;53.174;6.614;2023-02-17T06:13:07;9.60;99.90
61841;DHT22;47773;53.174;6.614;2023-02-17T06:15:33;9.60;99.90
61841;DHT22;47773;53.174;6.614;2023-02-17T06:17:58;9.60;99.90
61841;DHT22;47773;53.174;6.614;2023-02-17T06:20:24;9.60;99.90
61841;DHT22;47773;53.174;6.614;2023-02-17T06:22:50;9.60;99.90
61841;DHT22;47773;53.174;6.614;2023-02-17T06:25:16;9.60;99.90
61841;DHT22;47773;53.174;6.614;2023-02-17T06:27:41;9.70;99.90
61841;DHT22;47773;53.174;6.614;2023-02-17T06:30:09;9.60;99.90
61841;DHT22;47773;53.174;6.614;2023-02-17T06:32:34;9.60;99.90
61841;DHT22;47773;53.174;6.614;2023-02-17T06:35:00;9.70;99.90
61841;DHT22;47773;53.174;6.614;2023-02-17T06:37:26;9.70;99.90
61841;DHT22;47773;53.174;6.614;2023-02-17T06:39:51;9.70;99.90
61841;DHT22;47773;53.174;6.614;2023-02-17T06:42:17;9.70;99.90
61841;DHT22;47773;53.174;6.614;2023-02-17T06:44:43;9.70;99.90
61841;DHT22;47773;53.174;6.614;2023-02-17T06:47:08;9.70;99.90
61841;DHT22;47773;53.174;6.614;2023-02-17T06:49:34;9.70;99.90
61841;DHT22;47773;53.174;6.614;2023-02-17T06:51:59;9.70;99.90
61841;DHT22;47773;53.174;6.614;2023-02-17T06:54:25;9.70;99.90
61841;DHT22;47773;53.174;6.614;2023-02-17T06:56:51;9.70;99.90
61841;DHT22;47773;53.174;6.614;2023-02-17T06:59:16;9.70;99.90
61841;DHT22;47773;53.174;6.614;2023-02-17T07:01:42;9.70;99.90
61841;DHT22;47773;53.174;6.614;2023-02-17T07:04:07;9.80;99.90
61841;DHT22;47773;53.174;6.614;2023-02-17T07:06:33;9.70;99.90
61841;DHT22;47773;53.174;6.614;2023-02-17T07:09:00;9.80;99.90
61841;DHT22;47773;53.174;6.614;2023-02-17T07:11:25;9.80;99.90
61841;DHT22;47773;53.174;6.614;2023-02-17T07:13:56;9.80;99.90
61841;DHT22;47773;53.174;6.614;2023-02-17T07:16:22;9.80;99.90
61841;DHT22;47773;53.174;6.614;2023-02-17T07:18:47;9.80;99.90
61841;DHT22;47773;53.174;6.614;2023-02-17T07:21:13;9.80;99.90
61841;DHT22;47773;53.174;6.614;2023-02-17T07:23:39;9.80;99.90
61841;DHT22;47773;53.174;6.614;2023-02-17T07:26:07;9.80;99.90
61841;DHT22;47773;53.174;6.614;2023-02-17T07:28:34;9.80;99.90
61841;DHT22;47773;53.174;6.614;2023-02-17T07:31:05;9.90;99.90
61841;DHT22;47773;53.174;6.614;2023-02-17T07:33:31;9.90;99.90
61841;DHT22;47773;53.174;6.614;2023-02-17T07:35:57;9.90;99.90
61841;DHT22;47773;53.174;6.614;2023-02-17T07:38:22;9.80;99.90
61841;DHT22;47773;53.174;6.614;2023-02-17T07:40:48;9.90;99.90
61841;DHT22;47773;53.174;6.614;2023-02-17T07:43:14;9.90;99.90
61841;DHT22;47773;53.174;6.614;2023-02-17T07:45:39;9.90;99.90
61841;DHT22;47773;53.174;6.614;2023-02-17T07:48:05;10.00;99.90
61841;DHT22;47773;53.174;6.614;2023-02-17T07:50:30;10.00;99.90
61841;DHT22;47773;53.174;6.614;2023-02-17T07:52:56;10.00;99.90
61841;DHT22;47773;53.174;6.614;2023-02-17T07:55:22;10.00;99.90
61841;DHT22;47773;53.174;6.614;2023-02-17T07:57:48;10.10;99.90
61841;DHT22;47773;53.174;6.614;2023-02-17T08:00:14;10.10;99.90
61841;DHT22;47773;53.174;6.614;2023-02-17T08:02:40;10.10;99.90
61841;DHT22;47773;53.174;6.614;2023-02-17T08:05:06;10.10;99.90
61841;DHT22;47773;53.174;6.614;2023-02-17T08:07:31;10.20;99.90
61841;DHT22;47773;53.174;6.614;2023-02-17T08:09:57;10.30;99.90
61841;DHT22;47773;53.174;6.614;2023-02-17T08:12:49;10.20;99.90
61841;DHT22;47773;53.174;6.614;2023-02-17T08:15:34;10.30;99.90
61841;DHT22;47773;53.174;6.614;2023-02-17T08:18:00;10.30;99.90
61841;DHT22;47773;53.174;6.614;2023-02-17T08:20:26;10.30;99.90
61841;DHT22;47773;53.174;6.614;2023-02-17T08:22:52;10.30;99.90
61841;DHT22;47773;53.174;6.614;2023-02-17T08:25:18;10.40;99.90
61841;DHT22;47773;53.174;6.614;2023-02-17T08:27:44;10.40;99.90
61841;DHT22;47773;53.174;6.614;2023-02-17T08:30:10;10.40;99.90
61841;DHT22;47773;53.174;6.614;2023-02-17T08:32:36;10.40;99.90
61841;DHT22;47773;53.174;6.614;2023-02-17T08:35:01;10.40;99.90
61841;DHT22;47773;53.174;6.614;2023-02-17T08:37:27;10.50;99.90
61841;DHT22;47773;53.174;6.614;2023-02-17T08:39:54;10.50;99.90
61841;DHT22;47773;53.174;6.614;2023-02-17T08:42:20;10.50;99.90
61841;DHT22;47773;53.174;6.614;2023-02-17T08:44:45;10.50;99.90
61841;DHT22;47773;53.174;6.614;2023-02-17T08:47:11;10.50;99.90
61841;DHT22;47773;53.174;6.614;2023-02-17T08:49:37;10.60;99.90
61841;DHT22;47773;53.174;6.614;2023-02-17T08:52:03;10.60;99.90
61841;DHT22;47773;53.174;6.614;2023-02-17T08:54:29;10.60;99.90
61841;DHT22;47773;53.174;6.614;2023-02-17T08:56:54;10.60;99.90
61841;DHT22;47773;53.174;6.614;2023-02-17T08:59:20;10.60;99.90
61841;DHT22;47773;53.174;6.614;2023-02-17T09:01:46;10.70;99.90
61841;DHT22;47773;53.174;6.614;2023-02-17T09:04:13;10.70;99.90
61841;DHT22;47773;53.174;6.614;2023-02-17T09:06:45;10.70;99.90
61841;DHT22;47773;53.174;6.614;2023-02-17T09:09:13;10.80;99.90
61841;DHT22;47773;53.174;6.614;2023-02-17T09:11:39;10.80;99.90
61841;DHT22;47773;53.174;6.614;2023-02-17T09:14:05;10.80;99.90
61841;DHT22;47773;53.174;6.614;2023-02-17T09:16:31;10.90;99.90
61841;DHT22;47773;53.174;6.614;2023-02-17T09:18:57;10.90;99.90
61841;DHT22;47773;53.174;6.614;2023-02-17T09:21:23;10.90;99.90
61841;DHT22;47773;53.174;6.614;2023-02-17T09:23:49;10.90;99.90
61841;DHT22;47773;53.174;6.614;2023-02-17T09:26:16;10.90;99.90
61841;DHT22;47773;53.174;6.614;2023-02-17T09:28:42;11.00;99.90
61841;DHT22;47773;53.174;6.614;2023-02-17T09:31:19;11.00;99.90
61841;DHT22;47773;53.174;6.614;2023-02-17T09:33:46;11.00;99.90
61841;DHT22;47773;53.174;6.614;2023-02-17T09:36:18;11.00;99.90
61841;DHT22;47773;53.174;6.614;2023-02-17T09:38:45;11.00;99.90
61841;DHT22;47773;53.174;6.614;2023-02-17T09:41:20;11.00;99.90
61841;DHT22;47773;53.174;6.614;2023-02-17T09:43:47;11.00;99.90
61841;DHT22;47773;53.174;6.614;2023-02-17T09:46:26;11.10;99.90
61841;DHT22;47773;53.174;6.614;2023-02-17T09:48:55;11.10;99.90
61841;DHT22;47773;53.174;6.614;2023-02-17T09:54:23;11.10;99.90
61841;DHT22;47773;53.174;6.614;2023-02-17T09:56:53;11.10;99.90
61841;DHT22;47773;53.174;6.614;2023-02-17T09:59:25;11.20;99.90
61841;DHT22;47773;53.174;6.614;2023-02-17T10:01:52;11.20;99.90
61841;DHT22;47773;53.174;6.614;2023-02-17T10:04:21;11.20;99.90
61841;DHT22;47773;53.174;6.614;2023-02-17T10:06:53;11.20;99.90
61841;DHT22;47773;53.174;6.614;2023-02-17T10:14:43;11.30;99.90
61841;DHT22;47773;53.174;6.614;2023-02-17T10:17:14;11.30;99.90
61841;DHT22;47773;53.174;6.614;2023-02-17T10:22:18;11.30;99.90
61841;DHT22;47773;53.174;6.614;2023-02-17T10:24:44;11.30;99.90
61841;DHT22;47773;53.174;6.614;2023-02-17T10:27:37;11.30;99.90
61841;DHT22;47773;53.174;6.614;2023-02-17T10:33:10;11.40;99.90
61841;DHT22;47773;53.174;6.614;2023-02-17T10:35:52;11.40;99.90
61841;DHT22;47773;53.174;6.614;2023-02-17T10:41:04;11.40;99.90
61841;DHT22;47773;53.174;6.614;2023-02-17T10:43:32;11.40;99.90
61841;DHT22;47773;53.174;6.614;2023-02-17T10:46:05;11.40;99.90
61841;DHT22;47773;53.174;6.614;2023-02-17T10:48:41;11.40;99.90
61841;DHT22;47773;53.174;6.614;2023-02-17T10:51:13;11.40;99.90
61841;DHT22;47773;53.174;6.614;2023-02-17T10:53:39;11.40;99.90
61841;DHT22;47773;53.174;6.614;2023-02-17T10:56:27;11.40;99.90
61841;DHT22;47773;53.174;6.614;2023-02-17T10:59:02;11.50;99.90
61841;DHT22;47773;53.174;6.614;2023-02-17T11:01:31;11.50;99.90
61841;DHT22;47773;53.174;6.614;2023-02-17T11:04:05;11.50;99.90
61841;DHT22;47773;53.174;6.614;2023-02-17T11:06:31;11.50;99.90
61841;DHT22;47773;53.174;6.614;2023-02-17T11:09:04;11.50;99.90
61841;DHT22;47773;53.174;6.614;2023-02-17T11:11:33;11.60;99.90
61841;DHT22;47773;53.174;6.614;2023-02-17T11:14:08;11.60;99.90
61841;DHT22;47773;53.174;6.614;2023-02-17T11:16:43;11.60;99.90
61841;DHT22;47773;53.174;6.614;2023-02-17T11:19:30;11.70;99.90
61841;DHT22;47773;53.174;6.614;2023-02-17T11:22:00;11.60;99.90
61841;DHT22;47773;53.174;6.614;2023-02-17T11:24:34;11.70;99.90
61841;DHT22;47773;53.174;6.614;2023-02-17T11:27:08;11.60;99.90
61841;DHT22;47773;53.174;6.614;2023-02-17T11:29:34;11.70;99.90
61841;DHT22;47773;53.174;6.614;2023-02-17T11:32:03;11.70;99.90
61841;DHT22;47773;53.174;6.614;2023-02-17T11:34:36;11.70;99.90
61841;DHT22;47773;53.174;6.614;2023-02-17T11:37:20;11.70;99.90
61841;DHT22;47773;53.174;6.614;2023-02-17T11:39:49;11.80;99.90
61841;DHT22;47773;53.174;6.614;2023-02-17T11:42:28;11.80;99.90
61841;DHT22;47773;53.174;6.614;2023-02-17T11:44:57;11.90;99.90
61841;DHT22;47773;53.174;6.614;2023-02-17T11:47:46;11.90;99.90
61841;DHT22;47773;53.174;6.614;2023-02-17T11:53:25;12.10;99.90
61841;DHT22;47773;53.174;6.614;2023-02-17T11:56:13;12.10;99.90
61841;DHT22;47773;53.174;6.614;2023-02-17T12:04:26;12.20;99.90
61841;DHT22;47773;53.174;6.614;2023-02-17T12:06:57;12.30;99.90
61841;DHT22;47773;53.174;6.614;2023-02-17T12:09:34;12.30;99.90
61841;DHT22;47773;53.174;6.614;2023-02-17T12:17:44;12.30;99.90
61841;DHT22;47773;53.174;6.614;2023-02-17T12:26:18;12.30;99.90
61841;DHT22;47773;53.174;6.614;2023-02-17T12:34:35;12.30;99.90
61841;DHT22;47773;53.174;6.614;2023-02-17T12:37:05;12.20;99.90
61841;DHT22;47773;53.174;6.614;2023-02-17T12:39:41;12.30;99.90
61841;DHT22;47773;53.174;6.614;2023-02-17T12:42:14;12.30;99.90
61841;DHT22;47773;53.174;6.614;2023-02-17T12:44:46;12.30;99.90
61841;DHT22;47773;53.174;6.614;2023-02-17T12:47:17;12.30;99.90
61841;DHT22;47773;53.174;6.614;2023-02-17T12:49:53;12.30;99.90
61841;DHT22;47773;53.174;6.614;2023-02-17T12:52:38;12.30;99.90
61841;DHT22;47773;53.174;6.614;2023-02-17T12:55:17;12.40;99.90
61841;DHT22;47773;53.174;6.614;2023-02-17T12:57:48;12.40;99.90
61841;DHT22;47773;53.174;6.614;2023-02-17T13:00:38;12.50;99.90
61841;DHT22;47773;53.174;6.614;2023-02-17T13:03:05;12.50;99.90
61841;DHT22;47773;53.174;6.614;2023-02-17T13:05:39;12.50;99.90
61841;DHT22;47773;53.174;6.614;2023-02-17T13:10:46;12.50;99.90
61841;DHT22;47773;53.174;6.614;2023-02-17T13:13:28;12.50;99.90
61841;DHT22;47773;53.174;6.614;2023-02-17T13:16:20;12.50;99.90
61841;DHT22;47773;53.174;6.614;2023-02-17T13:18:49;12.60;99.90
61841;DHT22;47773;53.174;6.614;2023-02-17T13:23:42;12.50;99.90
61841;DHT22;47773;53.174;6.614;2023-02-17T13:28:46;12.60;99.90
61841;DHT22;47773;53.174;6.614;2023-02-17T13:31:17;12.60;99.90
61841;DHT22;47773;53.174;6.614;2023-02-17T13:33:55;12.60;99.90
61841;DHT22;47773;53.174;6.614;2023-02-17T13:39:03;12.60;99.90
61841;DHT22;47773;53.174;6.614;2023-02-17T13:41:46;12.70;99.90
61841;DHT22;47773;53.174;6.614;2023-02-17T13:44:33;12.70;99.90
61841;DHT22;47773;53.174;6.614;2023-02-17T13:47:02;12.70;99.90
61841;DHT22;47773;53.174;6.614;2023-02-17T13:49:32;12.70;99.90
61841;DHT22;47773;53.174;6.614;2023-02-17T13:52:21;12.80;99.90
61841;DHT22;47773;53.174;6.614;2023-02-17T13:55:06;12.90;99.90
61841;DHT22;47773;53.174;6.614;2023-02-17T13:57:34;13.00;99.90
61841;DHT22;47773;53.174;6.614;2023-02-17T14:02:30;13.10;99.90
61841;DHT22;47773;53.174;6.614;2023-02-17T14:05:19;13.20;99.90
61841;DHT22;47773;53.174;6.614;2023-02-17T14:07:47;13.20;99.90
61841;DHT22;47773;53.174;6.614;2023-02-17T14:10:22;13.10;99.90
61841;DHT22;47773;53.174;6.614;2023-02-17T14:12:49;13.00;99.90
61841;DHT22;47773;53.174;6.614;2023-02-17T14:15:24;12.90;99.90
61841;DHT22;47773;53.174;6.614;2023-02-17T14:17:51;12.80;99.90
61841;DHT22;47773;53.174;6.614;2023-02-17T14:20:42;12.70;99.90
61841;DHT22;47773;53.174;6.614;2023-02-17T14:25:40;12.50;99.90
61841;DHT22;47773;53.174;6.614;2023-02-17T14:28:20;12.50;99.90
61841;DHT22;47773;53.174;6.614;2023-02-17T14:30:47;12.40;99.90
61841;DHT22;47773;53.174;6.614;2023-02-17T14:38:26;12.40;99.90
61841;DHT22;47773;53.174;6.614;2023-02-17T14:40:52;12.40;99.90
61841;DHT22;47773;53.174;6.614;2023-02-17T14:43:20;12.50;99.90
61841;DHT22;47773;53.174;6.614;2023-02-17T14:45:46;12.50;99.90
61841;DHT22;47773;53.174;6.614;2023-02-17T14:48:12;12.60;99.90
61841;DHT22;47773;53.174;6.614;2023-02-17T14:50:38;12.60;99.90
61841;DHT22;47773;53.174;6.614;2023-02-17T14:53:24;12.50;99.90
61841;DHT22;47773;53.174;6.614;2023-02-17T14:56:07;12.60;99.90
61841;DHT22;47773;53.174;6.614;2023-02-17T14:58:34;12.60;99.90
61841;DHT22;47773;53.174;6.614;2023-02-17T15:00:59;12.60;99.90
61841;DHT22;47773;53.174;6.614;2023-02-17T15:03:25;12.50;99.90
61841;DHT22;47773;53.174;6.614;2023-02-17T15:05:52;12.50;99.90
61841;DHT22;47773;53.174;6.614;2023-02-17T15:08:21;12.50;99.90
61841;DHT22;47773;53.174;6.614;2023-02-17T15:10:48;12.50;99.90
61841;DHT22;47773;53.174;6.614;2023-02-17T15:13:20;12.40;99.90
61841;DHT22;47773;53.174;6.614;2023-02-17T15:15:46;12.30;99.90
61841;DHT22;47773;53.174;6.614;2023-02-17T15:18:15;12.30;99.90
61841;DHT22;47773;53.174;6.614;2023-02-17T15:20:43;12.20;99.90
61841;DHT22;47773;53.174;6.614;2023-02-17T15:23:20;12.10;99.90
61841;DHT22;47773;53.174;6.614;2023-02-17T15:25:47;12.10;99.90
61841;DHT22;47773;53.174;6.614;2023-02-17T15:28:16;12.10;99.90
61841;DHT22;47773;53.174;6.614;2023-02-17T15:30:47;12.00;99.90
61841;DHT22;47773;53.174;6.614;2023-02-17T15:33:15;11.90;99.90
61841;DHT22;47773;53.174;6.614;2023-02-17T15:35:41;11.90;99.90
61841;DHT22;47773;53.174;6.614;2023-02-17T15:38:11;11.80;99.90
61841;DHT22;47773;53.174;6.614;2023-02-17T15:40:37;11.80;99.90
61841;DHT22;47773;53.174;6.614;2023-02-17T15:43:03;11.70;99.90
61841;DHT22;47773;53.174;6.614;2023-02-17T15:45:29;11.60;99.90
61841;DHT22;47773;53.174;6.614;2023-02-17T15:48:03;11.60;99.90
61841;DHT22;47773;53.174;6.614;2023-02-17T15:50:30;11.50;99.90
61841;DHT22;47773;53.174;6.614;2023-02-17T15:52:56;11.40;99.90
61841;DHT22;47773;53.174;6.614;2023-02-17T15:55:21;11.40;99.90
61841;DHT22;47773;53.174;6.614;2023-02-17T15:57:52;11.30;99.90
61841;DHT22;47773;53.174;6.614;2023-02-17T16:02:45;11.30;99.90
61841;DHT22;47773;53.174;6.614;2023-02-17T16:05:12;11.20;99.90
61841;DHT22;47773;53.174;6.614;2023-02-17T16:07:38;11.10;99.90
61841;DHT22;47773;53.174;6.614;2023-02-17T16:10:05;11.10;99.90
61841;DHT22;47773;53.174;6.614;2023-02-17T16:12:31;11.10;99.90
61841;DHT22;47773;53.174;6.614;2023-02-17T16:14:57;11.00;99.90
61841;DHT22;47773;53.174;6.614;2023-02-17T16:17:23;11.00;99.90
61841;DHT22;47773;53.174;6.614;2023-02-17T16:19:50;11.00;99.90
61841;DHT22;47773;53.174;6.614;2023-02-17T16:22:15;11.00;99.90
61841;DHT22;47773;53.174;6.614;2023-02-17T16:24:41;10.90;99.90
61841;DHT22;47773;53.174;6.614;2023-02-17T16:27:08;10.80;99.90
61841;DHT22;47773;53.174;6.614;2023-02-17T16:29:36;10.80;99.90
61841;DHT22;47773;53.174;6.614;2023-02-17T16:32:02;10.70;99.90
61841;DHT22;47773;53.174;6.614;2023-02-17T16:34:28;10.70;99.90
61841;DHT22;47773;53.174;6.614;2023-02-17T16:37:02;10.70;99.90
61841;DHT22;47773;53.174;6.614;2023-02-17T16:39:28;10.70;99.90
61841;DHT22;47773;53.174;6.614;2023-02-17T16:41:54;10.60;99.90
61841;DHT22;47773;53.174;6.614;2023-02-17T16:44:21;10.60;99.90
61841;DHT22;47773;53.174;6.614;2023-02-17T16:46:53;10.50;99.90
61841;DHT22;47773;53.174;6.614;2023-02-17T16:49:35;10.50;99.90
61841;DHT22;47773;53.174;6.614;2023-02-17T16:52:12;10.40;99.90
61841;DHT22;47773;53.174;6.614;2023-02-17T16:54:43;10.40;99.90
61841;DHT22;47773;53.174;6.614;2023-02-17T16:57:15;10.30;99.90
61841;DHT22;47773;53.174;6.614;2023-02-17T16:59:42;10.30;99.90
61841;DHT22;47773;53.174;6.614;2023-02-17T17:02:10;10.20;99.90
61841;DHT22;47773;53.174;6.614;2023-02-17T17:04:35;10.20;99.90
61841;DHT22;47773;53.174;6.614;2023-02-17T17:07:01;10.10;99.90
61841;DHT22;47773;53.174;6.614;2023-02-17T17:09:27;10.10;99.90
61841;DHT22;47773;53.174;6.614;2023-02-17T17:11:53;10.10;99.90
61841;DHT22;47773;53.174;6.614;2023-02-17T17:14:19;10.10;99.90
61841;DHT22;47773;53.174;6.614;2023-02-17T17:16:50;10.00;99.90